City of Colorado Springs Municipal Airport
KCOS : now visible

Airfield :











YOU CAN JOIN US ON...

 
LOGIN :

Register | Disclaimer

   EN    FR    IT 

 









Legend :    VFR   Marginal VFR   IFR   Intensive IFR   Very Intensive IFR
Visi :
Ceiling :
>= 8 km
>= 3000ft
5 to 8 km
1000 to 3000 ft
1500m to 5 km
500 to 1000 ft
800 to 1500m
200 to 500 ft
< 800m
< 200 ft
Symbols :   Thunderstorms  Fog  Heavy snow  Heavy precipitations  Wind > 20 kt






- Airport Elevation : 6187 ft
- IATA code : COS


KCOS - City of Colorado Springs Municipal

CURRENT METAR :
  • 272154Z 11017G24KT 10SM SCT120 BKN160 BKN240 28/M02 A3004 RMK AO2 PK WND 09028/2058 SLP078 VIRGA ALQDS T02831022

EXPIRED METARs :
  • 272054Z 12020G30KT 10SM SCT120 BKN160 BKN240 29/M03 A3004 RMK AO2 PK WND 13030/2048 SLP075 VIRGA SW-NW T02941028 58019
  • 271954Z 11009G25KT 10SM SCT120 SCT160 BKN240 28/M03 A3007 RMK AO2 SLP086 T02831033

TAF KCOS
Valid from the 27 at 19:00 until the 28 at 18:00 UTC


271916Z 2719/2818 12015G25KT P6SM FEW120 OVC250
FM280200 09006KT P6SM BKN120
FM280500 36006KT P6SM OVC100
FM281200 04005KT P6SM BKN250
FM281700 16010KT P6SM BKN250
KZDV FIR / North America



MET'MAP, your aeronautical weather chart ! - Copyright ORBIFLY December 2007 - Disclaimer

ORBIFLY MET'MAP TEAM :

Programming & Development : Alexandra Zaïnal
Concept & original design : Baudouin d'Aumeries
Assistance for programming : Marc-Olivier Méhu
Technical & hardware support : Manuel Goepfert

Contact : metmap@orbifly.com




SOURCES & CREDITS :

   NOAA       Earth
Advisory